KLSV/LSV METAR and TAF weather

Enter ICAO airport designator
Station Type Date Time Source
KLSV METAR 2019/02/16 16:58 UTC NOAA

KLSV 161658Z 23009KT 10SM CLR 09/00 A3001 RMK AO2A SLP162 T00870004 $


Station Type Date Time Source
KLSV Decoded METAR 2019/02/16 16:58 UTC NOAA

Nellis Air Force Base, NV, United States (KLSV) 36-14N 115-02W
Feb 16, 2019 - 11:58 AM EST / 2019.02.16 1658 UTC
Wind: from the SW (230 degrees) at 10 MPH (9 KT):0
Visibility: 10 mile(s):0
Sky conditions: clear
Temperature: 47.7 F (8.7 C)
Dew Point: 32.7 F (0.4 C)
Relative Humidity: 55%
Pressure (altimeter): 30.01 in. Hg (1016 hPa)
ob: KLSV 161658Z 23009KT 10SM CLR 09/00 A3001 RMK AO2A SLP162 T00870004
cycle: 17

Station Type Date Time Source
KLSV TAF 2019/02/16 15:03 UTC NOAA

TAF TAF KLSV 161500Z 1615/1721 19010G15KT 9999 FEW080 QNH2985INS
BECMG 1617/1618 21012G18KT 9999 FEW080 SCT120 QNH2996INS
BECMG 1622/1623 22010KT 9999 SCT080 BKN100 QNH2990INS
BECMG 1711/1712 VRB06KT 9999 BKN060 QNH2988INS TX13/1621Z TN03/1715Z


Example: see airport list